Time;durP1;ratioP1;P1;durP2;ratioP2;P2;SDS_P1;SDS_P2;PMS_P1;PMS_P2;Temp;Humidity;BMP_temperature;BMP_pressure;BME280_temperature;BME280_humidity;BME280_pressure;Samples;Min_cycle;Max_cycle;Signal;HPM_P1;HPM_P2
2023/09/10 00:01:06;;;;;;;12.30;8.00;;;;;;;21.27;55.10;100781.72;5030495;28;20218;-68
2023/09/10 00:03:34;;;;;;;12.00;8.50;;;;;;;21.21;55.41;100780.22;5049071;28;20202;-67
2023/09/10 00:06:05;;;;;;;10.77;7.88;;;;;;;21.17;55.46;100778.66;5050677;28;20642;-67
2023/09/10 00:08:34;;;;;;;11.85;8.23;;;;;;;21.16;55.85;100769.09;5047573;28;20202;-67
2023/09/10 00:11:04;;;;;;;16.10;8.60;;;;;;;21.13;55.74;100770.97;5040135;28;20237;-67
2023/09/10 00:13:33;;;;;;;11.77;8.38;;;;;;;21.11;56.01;100770.22;5050282;28;20205;-67
2023/09/10 00:16:02;;;;;;;11.50;8.13;;;;;;;21.08;56.22;100773.81;5050424;28;20210;-67
2023/09/10 00:18:30;;;;;;;11.32;8.48;;;;;;;21.07;56.29;100779.97;5050534;28;20656;-67
2023/09/10 00:20:58;;;;;;;11.68;8.40;;;;;;;21.06;56.71;100773.03;5042008;28;20685;-67
2023/09/10 00:23:27;;;;;;;13.80;9.48;;;;;;;21.06;56.75;100780.91;5042475;28;20299;-68
2023/09/10 00:25:55;;;;;;;11.63;8.65;;;;;;;21.01;56.74;100782.84;5028859;28;20242;-67
2023/09/10 00:28:23;;;;;;;12.88;9.32;;;;;;;20.98;56.84;100777.75;5053685;28;20202;-66
2023/09/10 00:30:55;;;;;;;12.68;9.25;;;;;;;20.96;57.08;100782.22;5053712;28;20210;-71
2023/09/10 00:33:23;;;;;;;12.07;9.30;;;;;;;20.92;57.10;100778.88;5047213;28;20198;-66
2023/09/10 00:35:51;;;;;;;16.77;10.57;;;;;;;20.87;57.62;100786.06;5039464;28;20213;-66
2023/09/10 00:38:19;;;;;;;14.07;10.57;;;;;;;20.79;57.79;100784.69;5039946;28;20213;-67
2023/09/10 00:40:49;;;;;;;11.45;10.18;;;;;;;20.70;58.17;100778.94;5053892;28;20213;-67
2023/09/10 00:43:17;;;;;;;13.70;9.95;;;;;;;20.63;58.64;100780.09;5039443;28;20297;-67
2023/09/10 00:45:45;;;;;;;12.48;10.55;;;;;;;20.56;58.62;100785.66;5053515;28;20202;-66
2023/09/10 00:48:13;;;;;;;13.20;10.18;;;;;;;20.50;58.96;100787.59;5039231;28;20209;-68
2023/09/10 00:50:41;;;;;;;13.85;10.32;;;;;;;20.46;59.14;100779.91;5048882;28;20245;-66
2023/09/10 00:53:10;;;;;;;13.18;11.20;;;;;;;20.42;59.28;100773.09;5037070;28;20680;-67
2023/09/10 00:55:38;;;;;;;13.00;11.20;;;;;;;20.39;59.80;100773.19;5042385;28;20210;-68
2023/09/10 00:58:08;;;;;;;16.50;11.35;;;;;;;20.37;59.97;100773.28;5053071;28;20202;-68
2023/09/10 01:00:36;;;;;;;16.58;11.73;;;;;;;20.35;59.80;100771.63;5045743;28;20245;-68
2023/09/10 01:03:07;;;;;;;17.55;11.27;;;;;;;20.32;60.04;100776.97;5047318;28;20202;-68
2023/09/10 01:05:36;;;;;;;15.38;11.95;;;;;;;20.25;60.35;100772.00;5053587;28;20206;-67
2023/09/10 01:08:05;;;;;;;13.05;11.15;;;;;;;20.21;60.57;100773.06;5053778;28;20660;-67
2023/09/10 01:10:42;;;;;;;16.13;11.73;;;;;;;20.18;60.65;100775.78;5052649;28;20206;-67
2023/09/10 01:13:19;;;;;;;16.27;12.00;;;;;;;20.14;60.90;100774.22;5046735;28;20683;-67
2023/09/10 01:15:56;;;;;;;15.57;12.60;;;;;;;20.11;61.12;100774.31;5052993;28;20206;-69
2023/09/10 01:18:29;;;;;;;15.50;12.13;;;;;;;20.08;61.09;100769.22;5052799;28;20688;-66
2023/09/10 01:21:41;;;;;;;15.60;12.15;;;;;;;20.04;61.60;100772.84;5039885;28;20206;-69
2023/09/10 01:24:25;;;;;;;18.73;11.88;;;;;;;19.99;61.58;100777.41;5022655;28;20616;-67
2023/09/10 01:26:58;;;;;;;17.25;12.55;;;;;;;19.96;62.00;100774.94;5033059;28;20207;-67
2023/09/10 01:29:26;;;;;;;18.38;12.15;;;;;;;19.92;62.09;100770.69;5050353;28;20654;-66
2023/09/10 01:32:00;;;;;;;18.52;13.02;;;;;;;19.90;62.10;100770.78;5050358;28;20221;-68
2023/09/10 01:34:35;;;;;;;17.75;12.93;;;;;;;19.90;62.18;100768.16;5046434;28;20241;-67
2023/09/10 01:37:11;;;;;;;16.63;11.75;;;;;;;19.92;62.31;100773.31;5042814;28;20205;-69
2023/09/10 01:39:42;;;;;;;17.73;12.50;;;;;;;19.89;62.17;100769.06;5037630;28;20206;-68
2023/09/10 01:42:12;;;;;;;19.67;12.45;;;;;;;19.89;62.30;100773.47;5052854;28;20669;-68
2023/09/10 01:44:42;;;;;;;18.30;13.40;;;;;;;19.87;62.21;100776.13;5052366;28;20206;-68
2023/09/10 01:47:10;;;;;;;14.27;12.48;;;;;;;19.89;62.17;100773.47;5052509;28;20217;-68
2023/09/10 01:49:39;;;;;;;15.93;12.98;;;;;;;19.86;62.12;100768.34;5050612;28;20242;-67
2023/09/10 01:52:07;;;;;;;19.02;12.65;;;;;;;19.81;62.51;100775.50;5037946;28;20218;-66
2023/09/10 01:54:35;;;;;;;16.88;13.70;;;;;;;19.82;62.53;100777.22;5052142;28;20210;-66
2023/09/10 01:57:03;;;;;;;15.88;12.52;;;;;;;19.83;62.77;100771.06;5052599;28;20198;-67
2023/09/10 01:59:33;;;;;;;24.50;13.23;;;;;;;19.86;62.61;100768.34;5052476;28;20564;-69
2023/09/10 02:02:01;;;;;;;16.13;13.45;;;;;;;19.83;62.67;100760.59;5032465;28;20202;-68
2023/09/10 02:04:29;;;;;;;16.55;13.32;;;;;;;19.84;62.49;100775.38;5044303;28;20202;-69
2023/09/10 02:06:57;;;;;;;16.83;13.13;;;;;;;19.78;62.62;100772.09;5050362;28;20206;-70
2023/09/10 02:09:25;;;;;;;19.13;14.07;;;;;;;19.73;62.89;100768.78;5052326;28;20198;-70
2023/09/10 02:11:53;;;;;;;15.90;12.75;;;;;;;19.70;63.35;100774.16;5043380;28;20281;-70
2023/09/10 02:14:22;;;;;;;16.85;13.13;;;;;;;19.67;63.04;100769.03;5043416;28;20202;-69
2023/09/10 02:16:51;;;;;;;18.33;13.10;;;;;;;19.67;63.55;100768.19;5051749;28;20206;-72
2023/09/10 02:19:19;;;;;;;15.35;13.55;;;;;;;19.64;63.35;100774.38;5051763;28;20205;-71
2023/09/10 02:21:47;;;;;;;17.00;13.32;;;;;;;19.62;63.68;100765.72;5037838;28;20207;-70
2023/09/10 02:24:15;;;;;;;16.95;13.00;;;;;;;19.59;63.85;100762.34;5049035;28;20238;-70
2023/09/10 02:26:42;;;;;;;18.77;12.55;;;;;;;19.56;63.80;100765.94;5041077;28;20206;-70
2023/09/10 02:29:10;;;;;;;17.95;12.73;;;;;;;19.53;64.37;100761.66;5051721;28;20221;-70
2023/09/10 02:31:38;;;;;;;15.70;13.18;;;;;;;19.53;63.92;100768.66;5051732;28;20218;-70
2023/09/10 02:34:08;;;;;;;16.67;12.80;;;;;;;19.50;64.27;100759.16;5039654;28;20644;-70
2023/09/10 02:36:36;;;;;;;16.25;13.20;;;;;;;19.50;64.26;100771.38;5022342;28;20263;-71
2023/09/10 02:39:04;;;;;;;16.92;13.43;;;;;;;19.47;64.62;100772.34;5049701;28;20264;-69
2023/09/10 02:41:32;;;;;;;17.00;12.45;;;;;;;19.43;64.74;100772.53;5051455;28;20214;-71
2023/09/10 02:44:00;;;;;;;16.85;12.85;;;;;;;19.42;65.00;100778.66;5052221;28;20255;-70
2023/09/10 02:46:28;;;;;;;15.20;12.60;;;;;;;19.45;64.83;100775.94;5037377;28;20205;-72
2023/09/10 02:48:55;;;;;;;17.60;13.63;;;;;;;19.47;64.87;100779.34;5051730;28;20210;-71
2023/09/10 02:51:25;;;;;;;16.40;12.82;;;;;;;19.47;64.73;100774.97;5051498;28;20679;-69
2023/09/10 02:53:53;;;;;;;16.17;13.00;;;;;;;19.50;64.63;100782.69;5051284;28;20267;-70
2023/09/10 02:56:21;;;;;;;17.77;12.52;;;;;;;19.50;64.60;100777.47;5050799;28;20209;-70
2023/09/10 02:58:49;;;;;;;17.92;12.98;;;;;;;19.53;64.82;100776.50;5038501;28;20220;-69
2023/09/10 03:01:17;;;;;;;18.25;13.10;;;;;;;19.53;64.51;100776.50;5038287;28;20556;-70
2023/09/10 03:03:45;;;;;;;16.63;12.73;;;;;;;19.57;64.47;100772.88;5050750;28;20233;-71
2023/09/10 03:06:13;;;;;;;17.17;13.07;;;;;;;19.58;64.59;100769.34;5051341;28;20564;-69
2023/09/10 03:08:44;;;;;;;14.82;12.68;;;;;;;19.57;64.62;100774.63;5049643;28;20212;-69
2023/09/10 03:11:12;;;;;;;14.27;12.23;;;;;;;19.55;64.49;100772.94;5045647;28;20203;-69
2023/09/10 03:13:40;;;;;;;19.00;12.43;;;;;;;19.59;64.51;100776.28;5048565;28;20317;-72
2023/09/10 03:16:09;;;;;;;15.10;12.73;;;;;;;19.60;64.43;100769.28;5051462;28;20210;-69
2023/09/10 03:18:37;;;;;;;18.58;13.45;;;;;;;19.62;64.41;100776.19;5051360;28;20198;-70
2023/09/10 03:21:05;;;;;;;15.43;12.57;;;;;;;19.64;64.41;100758.69;5051351;28;20225;-69
2023/09/10 03:23:33;;;;;;;16.73;12.93;;;;;;;19.64;64.35;100769.16;5036221;28;20246;-70
2023/09/10 03:26:03;;;;;;;18.13;13.18;;;;;;;19.65;64.40;100765.63;5031089;28;20296;-71
2023/09/10 03:28:30;;;;;;;18.00;13.35;;;;;;;19.67;64.33;100768.19;5040733;28;20267;-71
2023/09/10 03:30:58;;;;;;;19.50;13.38;;;;;;;19.67;64.52;100758.59;5049386;28;20264;-70
2023/09/10 03:33:26;;;;;;;18.27;13.15;;;;;;;19.64;64.43;100765.69;5039684;28;20680;-69
2023/09/10 03:35:54;;;;;;;18.65;12.77;;;;;;;19.57;64.52;100759.78;5037087;28;20207;-72
2023/09/10 03:38:22;;;;;;;15.65;13.27;;;;;;;19.44;65.01;100769.00;5049769;28;20217;-69
2023/09/10 03:40:50;;;;;;;15.45;12.02;;;;;;;19.31;65.24;100766.84;5051184;28;20664;-69
2023/09/10 03:43:20;;;;;;;18.13;13.63;;;;;;;19.25;65.88;100766.19;5050778;28;20211;-72
2023/09/10 03:45:51;;;;;;;20.00;13.23;;;;;;;19.23;66.07;100757.56;5050922;28;20653;-72
2023/09/10 03:48:19;;;;;;;16.42;13.00;;;;;;;19.17;66.13;100763.00;5037475;28;20715;-73
2023/09/10 03:50:47;;;;;;;15.73;13.32;;;;;;;19.10;66.30;100754.53;5040090;28;20209;-71
2023/09/10 03:53:17;;;;;;;14.73;12.70;;;;;;;19.03;66.98;100753.88;5034212;28;20229;-70
2023/09/10 03:55:45;;;;;;;16.80;13.75;;;;;;;19.00;67.00;100755.75;5051293;28;20599;-69
2023/09/10 03:58:13;;;;;;;19.25;12.93;;;;;;;18.96;67.28;100759.38;5050956;28;20210;-69
2023/09/10 04:00:42;;;;;;;18.90;13.48;;;;;;;18.92;67.64;100752.56;5050899;28;20206;-70
2023/09/10 04:03:10;;;;;;;15.82;12.65;;;;;;;18.89;67.72;100758.78;5040595;28;20602;-71
2023/09/10 04:05:38;;;;;;;16.98;13.25;;;;;;;18.85;68.06;100764.13;5055188;28;20700;-70
2023/09/10 04:08:06;;;;;;;18.25;13.50;;;;;;;18.83;67.95;100759.81;5053497;28;20320;-70
2023/09/10 04:10:34;;;;;;;14.63;13.05;;;;;;;18.87;68.08;100757.09;5048834;28;20199;-70
2023/09/10 04:13:03;;;;;;;18.13;12.80;;;;;;;18.88;67.96;100753.59;5046956;28;20267;-71
2023/09/10 04:15:31;;;;;;;16.88;12.63;;;;;;;18.92;67.98;100756.03;5054918;28;20209;-70
2023/09/10 04:18:00;;;;;;;16.48;13.18;;;;;;;18.96;67.94;100759.38;5055031;28;20735;-70
2023/09/10 04:20:28;;;;;;;21.10;13.57;;;;;;;18.94;68.35;100756.00;5054578;28;20208;-69
2023/09/10 04:22:56;;;;;;;20.83;13.57;;;;;;;18.97;67.87;100751.50;5044668;28;20238;-69
2023/09/10 04:25:24;;;;;;;16.70;13.07;;;;;;;19.01;67.85;100747.03;5038546;28;20729;-69
2023/09/10 04:27:52;;;;;;;18.20;13.30;;;;;;;19.07;67.80;100752.03;5052539;28;20671;-70
2023/09/10 04:30:20;;;;;;;20.80;12.43;;;;;;;19.11;67.35;100755.38;5054464;28;20312;-69
2023/09/10 04:32:48;;;;;;;19.30;13.18;;;;;;;19.08;67.58;100761.59;5051358;28;20253;-67
2023/09/10 04:35:17;;;;;;;17.85;13.32;;;;;;;19.08;67.53;100756.38;5034292;28;20213;-71
2023/09/10 04:37:45;;;;;;;14.43;12.68;;;;;;;19.11;67.63;100758.88;5047661;28;20668;-68
2023/09/10 04:40:13;;;;;;;16.77;12.70;;;;;;;19.14;67.61;100755.28;5054068;28;20260;-69
2023/09/10 04:42:42;;;;;;;15.18;12.60;;;;;;;19.12;67.20;100749.28;5053542;28;20210;-70
2023/09/10 04:45:10;;;;;;;17.35;12.77;;;;;;;19.11;67.43;100755.38;5040848;28;20213;-68
2023/09/10 04:47:38;;;;;;;17.55;13.27;;;;;;;19.12;67.63;100755.34;5040871;28;20206;-68
2023/09/10 04:50:08;;;;;;;17.75;12.55;;;;;;;19.17;67.64;100758.63;5051440;28;20198;-68
2023/09/10 04:52:41;;;;;;;16.23;13.38;;;;;;;19.17;67.45;100753.41;5053893;28;20206;-69
2023/09/10 04:55:09;;;;;;;18.35;12.95;;;;;;;19.22;67.49;100754.13;5053849;28;20710;-68
2023/09/10 04:57:37;;;;;;;17.10;13.35;;;;;;;19.26;67.35;100757.47;5053769;28;20202;-70
2023/09/10 05:00:08;;;;;;;16.67;12.90;;;;;;;19.29;66.89;100750.38;5053661;28;20290;-69
2023/09/10 05:02:37;;;;;;;16.70;13.50;;;;;;;19.28;67.00;100750.41;5053632;28;20283;-68
2023/09/10 05:05:06;;;;;;;14.65;12.85;;;;;;;19.27;66.97;100744.34;5050621;28;20248;-69
2023/09/10 05:07:34;;;;;;;14.93;12.55;;;;;;;19.37;67.10;100754.44;5042636;28;20213;-70
2023/09/10 05:10:03;;;;;;;17.02;12.82;;;;;;;19.46;66.55;100754.97;5039385;28;20230;-70
2023/09/10 05:12:31;;;;;;;15.82;12.77;;;;;;;19.51;66.36;100754.78;5044347;28;20217;-69
2023/09/10 05:14:59;;;;;;;13.88;11.82;;;;;;;19.54;66.23;100755.53;5038813;28;20368;-68
2023/09/10 05:17:27;;;;;;;17.58;12.15;;;;;;;19.62;65.82;100755.28;5053371;28;20292;-69
2023/09/10 05:19:55;;;;;;;14.13;12.45;;;;;;;19.65;65.78;100756.94;5040562;28;20206;-68
2023/09/10 05:22:23;;;;;;;15.52;12.15;;;;;;;19.66;66.00;100759.50;5050247;28;20213;-68
2023/09/10 05:24:51;;;;;;;14.60;12.38;;;;;;;19.65;65.40;100765.63;5045603;28;20213;-68
2023/09/10 05:27:20;;;;;;;17.90;13.02;;;;;;;19.65;65.49;100759.53;5033383;28;20260;-69
2023/09/10 05:29:48;;;;;;;14.85;11.88;;;;;;;19.66;65.46;100761.22;5020010;28;20562;-71
2023/09/10 05:32:16;;;;;;;18.90;12.63;;;;;;;19.64;65.38;100760.47;5040955;28;20587;-70
2023/09/10 05:34:44;;;;;;;17.67;13.05;;;;;;;19.65;65.59;100763.00;5051815;28;20633;-68
2023/09/10 05:37:13;;;;;;;14.52;12.43;;;;;;;19.65;65.29;100755.16;5052551;28;20232;-68
2023/09/10 05:39:41;;;;;;;17.10;12.25;;;;;;;19.67;65.36;100762.97;5052531;28;20202;-67
2023/09/10 05:42:09;;;;;;;15.18;12.43;;;;;;;19.70;65.72;100763.69;5052819;28;20206;-67
2023/09/10 05:44:38;;;;;;;16.30;12.63;;;;;;;19.76;65.27;100770.44;5052496;28;20202;-68
2023/09/10 05:47:06;;;;;;;16.30;12.35;;;;;;;19.79;65.16;100773.78;5043843;28;20265;-67
2023/09/10 05:49:35;;;;;;;14.70;12.00;;;;;;;19.81;65.04;100767.66;5044046;28;20297;-68
2023/09/10 05:52:03;;;;;;;14.38;12.50;;;;;;;19.86;65.13;100763.09;5036357;28;20565;-69
2023/09/10 05:54:31;;;;;;;14.80;11.50;;;;;;;19.92;65.08;100773.31;5046968;28;20235;-67
2023/09/10 05:56:59;;;;;;;21.25;12.57;;;;;;;19.92;64.83;100770.69;5039124;28;20685;-68
2023/09/10 05:59:27;;;;;;;13.90;11.43;;;;;;;19.95;64.45;100779.28;5039932;28;20217;-67
2023/09/10 06:01:57;;;;;;;15.32;12.00;;;;;;;19.95;64.80;100776.66;5037108;28;20552;-67
2023/09/10 06:04:27;;;;;;;15.93;13.35;;;;;;;20.00;64.88;100771.28;5052089;28;20226;-68
2023/09/10 06:06:55;;;;;;;16.35;12.25;;;;;;;20.08;64.48;100774.44;5052070;28;20684;-67
2023/09/10 06:09:23;;;;;;;16.42;12.35;;;;;;;20.15;64.28;100775.06;5048671;28;20214;-68
2023/09/10 06:11:51;;;;;;;15.43;12.55;;;;;;;20.17;64.24;100771.44;5043404;28;20214;-67
2023/09/10 06:14:19;;;;;;;13.82;12.35;;;;;;;20.21;63.90;100769.56;5042134;28;20621;-67
2023/09/10 06:16:47;;;;;;;14.80;11.77;;;;;;;20.24;64.09;100772.06;5048743;28;20252;-68
2023/09/10 06:19:16;;;;;;;15.40;11.45;;;;;;;20.34;64.00;100772.56;5052226;28;20621;-68
2023/09/10 06:21:44;;;;;;;14.88;11.63;;;;;;;20.56;63.89;100768.16;5038027;28;20218;-68
2023/09/10 06:24:12;;;;;;;17.63;11.95;;;;;;;20.89;63.13;100767.66;5021596;28;20265;-68
2023/09/10 06:26:40;;;;;;;21.05;12.10;;;;;;;21.27;61.84;100770.38;5040327;28;20213;-67
2023/09/10 06:29:08;;;;;;;14.00;10.75;;;;;;;21.62;60.40;100763.59;5052022;28;20677;-67
2023/09/10 06:31:36;;;;;;;14.60;10.88;;;;;;;21.93;59.10;100765.63;5052097;28;20700;-68
2023/09/10 06:34:05;;;;;;;13.55;11.52;;;;;;;22.18;57.96;100763.56;5052100;28;21139;-67
2023/09/10 06:36:34;;;;;;;16.02;11.10;;;;;;;22.41;57.20;100761.59;5037687;28;20214;-68
2023/09/10 06:39:03;;;;;;;14.57;10.77;;;;;;;22.64;56.72;100756.06;5051865;28;20669;-67
2023/09/10 06:41:32;;;;;;;15.05;11.35;;;;;;;22.85;55.78;100764.63;5051466;28;20724;-66
2023/09/10 06:44:00;;;;;;;14.38;11.00;;;;;;;23.06;55.46;100761.84;5047071;28;20255;-69
2023/09/10 06:46:28;;;;;;;18.40;10.80;;;;;;;23.23;54.68;100766.22;5035076;28;20238;-72
2023/09/10 06:48:56;;;;;;;12.65;10.85;;;;;;;23.39;54.13;100765.34;5041630;28;20227;-71
2023/09/10 06:51:25;;;;;;;12.85;11.48;;;;;;;23.52;53.86;100759.41;5040735;28;20614;-71
2023/09/10 06:53:54;;;;;;;17.67;11.18;;;;;;;23.73;53.15;100762.69;5051692;28;20202;-71
2023/09/10 06:56:22;;;;;;;13.15;10.75;;;;;;;23.95;52.49;100770.25;5048859;28;20210;-71
2023/09/10 06:58:50;;;;;;;12.43;10.88;;;;;;;24.14;52.08;100767.44;5047985;28;20228;-71
2023/09/10 07:01:20;;;;;;;13.40;10.60;;;;;;;24.27;51.66;100771.06;5051699;28;20726;-71
2023/09/10 07:03:52;;;;;;;13.77;10.98;;;;;;;24.42;51.13;100777.28;5024396;28;20665;-71
2023/09/10 07:06:20;;;;;;;14.80;10.80;;;;;;;24.52;50.58;100774.03;5051320;28;20615;-72
2023/09/10 07:08:48;;;;;;;15.98;10.23;;;;;;;24.64;51.04;100761.06;5049705;28;20229;-72
2023/09/10 07:11:17;;;;;;;12.35;10.18;;;;;;;24.89;50.47;100763.06;5039020;28;20574;-73
2023/09/10 07:13:45;;;;;;;18.13;10.43;;;;;;;25.05;49.45;100766.50;5035374;28;20213;-70
2023/09/10 07:16:13;;;;;;;14.10;10.77;;;;;;;25.18;49.32;100761.34;5040904;28;20222;-72
2023/09/10 07:18:41;;;;;;;12.82;10.15;;;;;;;25.33;48.50;100765.69;5047804;28;20205;-71
2023/09/10 07:21:09;;;;;;;16.75;10.80;;;;;;;25.49;48.57;100761.16;5051102;28;20256;-71
2023/09/10 07:23:37;;;;;;;13.32;10.57;;;;;;;25.73;47.67;100764.03;5050734;28;20230;-71
2023/09/10 07:26:05;;;;;;;13.23;10.70;;;;;;;25.79;47.70;100762.84;5036516;28;20209;-71
2023/09/10 07:28:34;;;;;;;14.55;10.43;;;;;;;25.88;46.90;100762.25;5051186;28;20213;-69
2023/09/10 07:31:02;;;;;;;15.27;10.38;;;;;;;26.06;46.90;100762.84;5050852;28;20210;-71
2023/09/10 07:33:30;;;;;;;12.65;10.90;;;;;;;26.23;46.35;100761.78;5044815;28;20215;-70
2023/09/10 07:35:58;;;;;;;12.00;10.52;;;;;;;26.42;46.16;100754.31;5050011;28;20607;-70
2023/09/10 07:38:29;;;;;;;13.32;9.40;;;;;;;26.56;45.83;100756.06;5040709;28;20670;-69
2023/09/10 07:40:57;;;;;;;12.40;9.95;;;;;;;26.57;45.68;100755.13;5040987;28;20226;-71
2023/09/10 07:43:25;;;;;;;10.00;9.00;;;;;;;26.60;45.33;100751.44;5041290;28;20201;-71
2023/09/10 07:45:54;;;;;;;10.90;9.70;;;;;;;26.63;45.13;100748.59;5050716;28;20360;-71
2023/09/10 07:48:22;;;;;;;10.15;9.15;;;;;;;26.65;45.25;100749.31;5054549;28;20657;-71
2023/09/10 07:50:54;;;;;;;9.77;8.88;;;;;;;26.86;44.99;100753.16;5053728;28;20584;-71
2023/09/10 07:53:23;;;;;;;10.57;9.15;;;;;;;27.08;44.62;100756.97;5054588;28;20255;-72
2023/09/10 07:55:52;;;;;;;13.60;9.38;;;;;;;27.38;44.22;100741.59;5054761;28;20218;-69
2023/09/10 07:58:20;;;;;;;10.32;8.68;;;;;;;27.65;43.06;100743.22;5055040;28;20248;-70
2023/09/10 08:00:47;;;;;;;11.45;9.13;;;;;;;27.92;42.59;100741.28;5054889;28;20212;-70
2023/09/10 08:03:17;;;;;;;10.65;8.27;;;;;;;28.14;42.20;100750.31;5052851;28;20212;-70
2023/09/10 08:05:47;;;;;;;9.43;8.20;;;;;;;28.34;41.72;100741.69;5043200;28;20210;-69
2023/09/10 08:08:15;;;;;;;12.05;8.88;;;;;;;28.54;40.67;100748.19;5039596;28;20312;-70
2023/09/10 08:10:44;;;;;;;12.15;7.65;;;;;;;28.80;39.97;100748.84;5034666;28;20238;-70
2023/09/10 08:13:13;;;;;;;13.63;8.68;;;;;;;29.08;39.55;100731.66;5048024;28;20305;-70
2023/09/10 08:15:41;;;;;;;10.32;8.95;;;;;;;29.23;39.28;100742.88;5052078;28;20221;-72
2023/09/10 08:18:11;;;;;;;12.02;8.80;;;;;;;29.11;39.16;100735.88;5054058;28;20230;-69
2023/09/10 08:20:42;;;;;;;11.90;8.32;;;;;;;28.92;39.43;100746.22;5054217;28;20300;-68
2023/09/10 08:23:10;;;;;;;8.75;7.68;;;;;;;28.79;39.73;100746.31;5054221;28;20320;-69
2023/09/10 08:25:39;;;;;;;12.48;8.88;;;;;;;29.02;40.01;100747.25;5040060;28;20211;-69
2023/09/10 08:28:07;;;;;;;9.18;8.02;;;;;;;29.33;39.75;100751.81;5027212;28;20210;-69
2023/09/10 08:30:35;;;;;;;9.85;7.72;;;;;;;29.58;38.88;100750.75;5054113;28;20260;-69
2023/09/10 08:33:03;;;;;;;12.07;8.23;;;;;;;29.58;38.27;100748.09;5053956;28;20205;-71
2023/09/10 08:35:46;;;;;;;17.17;8.75;;;;;;;29.75;38.82;100736.09;5051834;28;20304;-68
2023/09/10 08:38:14;;;;;;;11.73;7.45;;;;;;;30.11;37.95;100739.34;5054295;28;20748;-70
2023/09/10 08:40:50;;;;;;;8.18;7.35;;;;;;;30.29;37.11;100740.53;5042632;28;20718;-70
2023/09/10 08:43:23;;;;;;;8.63;7.65;;;;;;;30.59;37.02;100736.25;5048466;28;20719;-70
2023/09/10 08:45:51;;;;;;;9.57;7.32;;;;;;;31.08;35.22;100737.41;5038808;28;20202;-70
2023/09/10 08:48:20;;;;;;;9.60;7.30;;;;;;;31.38;34.73;100735.75;5053860;28;20561;-69
2023/09/10 08:50:51;;;;;;;11.88;7.20;;;;;;;31.73;34.59;100730.75;5053662;28;20237;-70
2023/09/10 08:53:21;;;;;;;10.43;7.47;;;;;;;32.31;33.68;100729.97;5053601;28;20197;-69
2023/09/10 08:55:50;;;;;;;9.25;6.68;;;;;;;33.06;31.85;100722.97;5053824;28;20225;-68
2023/09/10 08:58:19;;;;;;;10.43;6.95;;;;;;;33.81;30.81;100728.22;5053416;28;20251;-71
2023/09/10 09:00:50;;;;;;;14.27;7.38;;;;;;;34.17;29.88;100723.72;5053454;28;20629;-68
2023/09/10 09:03:18;;;;;;;9.63;7.25;;;;;;;34.53;29.42;100729.88;5053359;28;20610;-69
2023/09/10 09:05:49;;;;;;;10.13;7.28;;;;;;;34.76;29.89;100726.69;5050298;28;20210;-69
2023/09/10 09:08:24;;;;;;;9.80;7.05;;;;;;;34.79;29.91;100723.69;5053426;28;20604;-70
2023/09/10 09:10:53;;;;;;;9.02;7.28;;;;;;;34.60;29.60;100714.88;5049885;28;20325;-70
2023/09/10 09:13:22;;;;;;;10.55;6.72;;;;;;;34.06;30.19;100724.81;5046963;28;20316;-70
2023/09/10 09:15:51;;;;;;;8.57;6.70;;;;;;;33.60;30.76;100721.31;5033118;28;20707;-70
2023/09/10 09:18:21;;;;;;;9.60;5.78;;;;;;;33.07;31.76;100722.00;5049087;28;20348;-70
2023/09/10 09:20:51;;;;;;;10.73;6.93;;;;;;;32.64;32.86;100726.03;5039620;28;20259;-71
2023/09/10 09:23:28;;;;;;;9.25;6.90;;;;;;;32.04;33.62;100717.38;5052467;28;20241;-70
2023/09/10 09:25:56;;;;;;;12.02;8.10;;;;;;;31.46;34.89;100725.25;5029182;28;20210;-70
2023/09/10 09:28:26;;;;;;;10.20;6.43;;;;;;;30.91;35.57;100724.72;5032663;28;20676;-69
2023/09/10 09:30:54;;;;;;;6.88;6.13;;;;;;;30.51;35.54;100722.75;5048129;28;20202;-69
2023/09/10 09:33:23;;;;;;;11.90;6.65;;;;;;;30.31;36.58;100722.63;5045663;28;20206;-69
2023/09/10 09:35:51;;;;;;;8.65;5.75;;;;;;;30.25;36.67;100712.50;5049056;28;20226;-70
2023/09/10 09:38:21;;;;;;;11.20;5.95;;;;;;;30.06;36.26;100712.31;5052009;28;20206;-71
2023/09/10 09:40:50;;;;;;;9.43;6.75;;;;;;;29.91;37.11;100716.25;5039591;28;20268;-70
2023/09/10 09:43:18;;;;;;;9.82;6.15;;;;;;;29.82;37.21;100708.03;5052029;28;20202;-70
2023/09/10 09:45:48;;;;;;;7.72;5.80;;;;;;;29.87;37.41;100705.03;5052713;28;20653;-70
2023/09/10 09:48:17;;;;;;;7.10;5.88;;;;;;;29.88;37.16;100708.53;5052634;28;20205;-70
2023/09/10 09:50:47;;;;;;;11.80;5.57;;;;;;;30.00;37.29;100699.53;5052569;28;20664;-70
2023/09/10 09:53:16;;;;;;;7.72;5.63;;;;;;;30.19;36.76;100697.06;5052183;28;20284;-70
2023/09/10 09:55:44;;;;;;;7.85;5.78;;;;;;;30.43;36.58;100698.63;5052432;28;20645;-71
2023/09/10 09:58:14;;;;;;;8.25;6.00;;;;;;;30.49;36.91;100698.13;5052366;28;20684;-71
2023/09/10 10:00:44;;;;;;;8.68;6.57;;;;;;;30.59;36.28;100699.00;5051529;28;20229;-71
2023/09/10 10:03:12;;;;;;;10.45;6.30;;;;;;;30.70;36.73;100698.94;5052296;28;20233;-70
2023/09/10 10:05:40;;;;;;;10.32;5.95;;;;;;;30.85;36.43;100687.97;5050484;28;20729;-71
2023/09/10 10:08:11;;;;;;;6.38;5.45;;;;;;;31.11;36.18;100688.38;5051607;28;20216;-71
2023/09/10 10:10:46;;;;;;;15.27;6.40;;;;;;;31.25;35.74;100683.50;5050850;28;20237;-70
2023/09/10 10:13:18;;;;;;;7.22;6.25;;;;;;;31.25;35.60;100686.16;5045731;28;20267;-70
2023/09/10 10:15:47;;;;;;;8.18;6.65;;;;;;;31.26;34.91;100685.22;5051656;28;20267;-70
2023/09/10 10:18:17;;;;;;;9.40;6.15;;;;;;;31.31;35.79;100682.16;5051992;28;20615;-71
2023/09/10 10:20:47;;;;;;;10.88;6.53;;;;;;;31.43;35.74;100682.91;5046100;28;20252;-70
2023/09/10 10:23:16;;;;;;;9.82;6.03;;;;;;;31.71;35.28;100675.94;5043581;28;20292;-70
2023/09/10 10:25:54;;;;;;;9.10;5.68;;;;;;;32.03;33.95;100674.84;5036228;28;20241;-71
2023/09/10 10:28:24;;;;;;;9.30;5.97;;;;;;;32.30;33.59;100666.97;5050517;28;20668;-70
2023/09/10 10:30:55;;;;;;;8.55;5.63;;;;;;;32.52;32.85;100660.47;5037369;28;20206;-69
2023/09/10 10:33:25;;;;;;;10.80;6.10;;;;;;;32.76;32.14;100661.78;5051339;28;20214;-70
2023/09/10 10:36:14;;;;;;;10.65;6.20;;;;;;;33.03;32.10;100666.34;5051055;28;20210;-70
2023/09/10 10:38:45;;;;;;;7.45;5.80;;;;;;;33.55;30.89;100659.47;5051374;28;20660;-70
2023/09/10 10:41:14;;;;;;;7.13;6.07;;;;;;;34.23;30.20;100655.38;5037277;28;20206;-70
2023/09/10 10:43:48;;;;;;;7.00;5.65;;;;;;;34.42;28.96;100657.84;5051218;28;20210;-72
2023/09/10 10:46:18;;;;;;;9.35;5.90;;;;;;;34.37;28.64;100658.34;5051063;28;20264;-71
2023/09/10 10:48:46;;;;;;;7.70;5.38;;;;;;;34.59;28.46;100651.63;5040583;28;20208;-71
2023/09/10 10:51:17;;;;;;;7.30;5.63;;;;;;;34.80;28.17;100639.72;5050321;28;20559;-70
2023/09/10 10:53:46;;;;;;;7.63;5.10;;;;;;;34.86;28.25;100647.09;5051400;28;20253;-70
2023/09/10 10:56:14;;;;;;;8.85;5.45;;;;;;;34.72;27.54;100647.69;5051267;28;20218;-70
2023/09/10 10:58:45;;;;;;;7.40;5.30;;;;;;;34.60;28.80;100650.63;5023606;28;20310;-70
2023/09/10 11:01:13;;;;;;;11.23;5.75;;;;;;;34.63;28.13;100649.50;5051010;28;20770;-70
2023/09/10 11:03:44;;;;;;;7.53;5.20;;;;;;;34.44;27.51;100642.50;5050938;28;20197;-70
2023/09/10 11:06:12;;;;;;;8.82;5.07;;;;;;;34.20;28.21;100643.16;5038974;28;20297;-71
2023/09/10 11:08:42;;;;;;;6.93;5.30;;;;;;;34.11;28.11;100647.63;5049100;28;20221;-69
2023/09/10 11:11:12;;;;;;;11.77;5.45;;;;;;;34.10;28.66;100650.47;5040087;28;20234;-70
2023/09/10 11:14:02;;;;;;;9.15;5.70;;;;;;;34.16;28.31;100635.59;5048569;28;20205;-70
2023/09/10 11:16:31;;;;;;;11.60;5.32;;;;;;;34.51;27.60;100648.09;5050614;28;20220;-70
2023/09/10 11:19:00;;;;;;;9.13;5.00;;;;;;;34.89;27.26;100640.56;5048834;28;20229;-69
2023/09/10 11:22:03;;;;;;;8.52;4.85;;;;;;;35.04;26.99;100642.50;5050036;28;20217;-69
2023/09/10 11:24:34;;;;;;;13.48;5.28;;;;;;;34.93;26.96;100637.41;5042536;28;20261;-71